createdAt,value
2018-05-31T00:01:27.802Z,23.36
2018-05-31T00:03:56.285Z,23.43
2018-05-31T00:06:24.847Z,23.65
2018-05-31T00:08:54.329Z,23.32
2018-05-31T00:11:23.058Z,23.39
2018-05-31T00:13:51.518Z,23.80
2018-05-31T00:16:19.951Z,23.53
2018-05-31T00:18:48.409Z,23.49
2018-05-31T00:21:16.842Z,23.60
2018-05-31T00:23:45.239Z,23.22
2018-05-31T00:26:13.763Z,23.33
2018-05-31T00:28:42.247Z,23.10
2018-05-31T00:31:10.712Z,23.25
2018-05-31T00:33:39.162Z,23.95
2018-05-31T00:36:07.775Z,23.64
2018-05-31T00:38:36.200Z,23.67
2018-05-31T00:41:04.689Z,23.63
2018-05-31T00:43:33.149Z,23.55
2018-05-31T00:46:01.550Z,23.52
2018-05-31T00:48:29.996Z,23.65
2018-05-31T00:50:58.461Z,23.31
2018-05-31T00:53:26.933Z,23.55
2018-05-31T00:56:07.192Z,23.67
2018-05-31T00:58:35.605Z,23.73
2018-05-31T01:01:04.102Z,23.60
2018-05-31T01:03:32.591Z,23.46
2018-05-31T01:06:02.017Z,23.52
2018-05-31T01:08:30.600Z,23.53
2018-05-31T01:10:59.027Z,23.53
2018-05-31T01:13:27.462Z,23.24
2018-05-31T01:15:55.891Z,23.25
2018-05-31T01:18:24.313Z,23.08
2018-05-31T01:20:52.782Z,23.53
2018-05-31T01:23:21.274Z,23.35
2018-05-31T01:25:49.711Z,23.47
2018-05-31T01:28:18.185Z,23.43
2018-05-31T01:30:46.638Z,23.55
2018-05-31T01:33:15.188Z,23.24
2018-05-31T01:35:43.706Z,23.63
2018-05-31T01:38:23.892Z,23.52
2018-05-31T01:40:52.377Z,23.56
2018-05-31T01:43:20.823Z,23.62
2018-05-31T01:45:49.245Z,22.99
2018-05-31T01:48:17.740Z,23.29
2018-05-31T01:50:46.186Z,23.08
2018-05-31T01:53:14.604Z,23.21
2018-05-31T01:55:43.059Z,23.18
2018-05-31T01:58:11.526Z,23.13
2018-05-31T02:00:39.984Z,22.76
2018-05-31T02:03:08.501Z,22.84
2018-05-31T02:05:36.915Z,22.83
2018-05-31T02:08:05.345Z,23.06
2018-05-31T02:10:33.791Z,22.97
2018-05-31T02:13:02.437Z,23.07
2018-05-31T02:15:30.892Z,23.26
2018-05-31T02:17:59.337Z,23.04
2018-05-31T02:20:27.756Z,23.27
2018-05-31T02:22:56.207Z,22.76
2018-05-31T02:25:24.662Z,23.04
2018-05-31T02:27:53.136Z,22.94
2018-05-31T02:30:21.626Z,23.02
2018-05-31T02:32:50.077Z,22.99
2018-05-31T02:35:18.505Z,23.07
2018-05-31T02:37:46.943Z,22.82
2018-05-31T02:40:15.380Z,23.18
2018-05-31T02:42:43.824Z,22.98
2018-05-31T02:45:12.253Z,22.94
2018-05-31T02:47:40.669Z,22.92
2018-05-31T02:50:09.120Z,22.84
2018-05-31T02:52:37.562Z,22.69
2018-05-31T02:55:06.124Z,22.81
2018-05-31T02:57:34.558Z,23.12
2018-05-31T03:00:02.958Z,22.71
2018-05-31T03:02:37.374Z,23.04
2018-05-31T03:05:05.829Z,22.90
2018-05-31T03:07:34.219Z,23.21
2018-05-31T03:10:02.708Z,23.15
2018-05-31T03:12:31.239Z,22.88
2018-05-31T03:14:59.697Z,22.66
2018-05-31T03:17:28.168Z,22.77
2018-05-31T03:19:57.747Z,23.06
2018-05-31T03:22:26.190Z,22.62
2018-05-31T03:24:54.657Z,22.71
2018-05-31T03:27:24.189Z,22.81
2018-05-31T03:29:52.704Z,22.62
2018-05-31T03:32:21.226Z,22.94
2018-05-31T03:34:49.700Z,23.02
2018-05-31T03:37:18.121Z,23.08
2018-05-31T03:39:47.565Z,22.82
2018-05-31T03:42:16.108Z,22.51
2018-05-31T03:44:44.498Z,23.10
2018-05-31T03:47:13.131Z,22.39
2018-05-31T03:49:41.566Z,22.98
2018-05-31T03:52:10.192Z,22.93
2018-05-31T03:54:38.653Z,22.95
2018-05-31T03:57:07.103Z,22.76
2018-05-31T03:59:35.540Z,23.35
2018-05-31T04:02:04.016Z,23.45
2018-05-31T04:04:32.549Z,23.49
2018-05-31T04:07:01.082Z,23.67
2018-05-31T04:09:29.666Z,24.05
2018-05-31T04:11:58.262Z,23.92
2018-05-31T04:14:26.827Z,23.98
2018-05-31T04:16:55.344Z,24.03
2018-05-31T04:19:23.791Z,24.47
2018-05-31T04:21:53.143Z,24.34
2018-05-31T04:24:21.657Z,24.35
2018-05-31T04:26:50.145Z,23.75
2018-05-31T04:29:18.649Z,24.37
2018-05-31T04:31:47.148Z,24.28
2018-05-31T04:34:15.602Z,24.57
2018-05-31T04:36:44.127Z,25.27
2018-05-31T04:39:14.757Z,25.21
2018-05-31T04:41:43.326Z,25.41
2018-05-31T04:44:11.805Z,25.02
2018-05-31T04:46:40.330Z,25.30
2018-05-31T04:49:08.778Z,25.47
2018-05-31T04:51:37.315Z,25.28
2018-05-31T04:54:06.708Z,25.58
2018-05-31T04:56:35.128Z,25.66
2018-05-31T04:59:03.693Z,25.71
2018-05-31T05:01:32.163Z,25.57
2018-05-31T05:04:00.669Z,26.04
2018-05-31T05:06:29.220Z,26.16
2018-05-31T05:08:57.683Z,25.87
2018-05-31T05:11:26.097Z,26.03
2018-05-31T05:13:54.716Z,26.22
2018-05-31T05:16:23.101Z,26.73
2018-05-31T05:18:51.626Z,27.11
2018-05-31T05:21:20.023Z,27.20
2018-05-31T05:23:48.441Z,27.53
2018-05-31T05:26:16.864Z,28.82
2018-05-31T05:28:45.332Z,29.23
2018-05-31T05:31:14.130Z,29.06
2018-05-31T05:33:42.635Z,29.75
2018-05-31T05:36:11.467Z,30.93
2018-05-31T05:38:40.049Z,31.73
2018-05-31T05:41:08.571Z,32.28
2018-05-31T05:43:37.119Z,33.84
2018-05-31T05:46:05.498Z,34.94
2018-05-31T05:48:33.876Z,33.36
2018-05-31T05:51:02.328Z,32.81
2018-05-31T05:53:32.703Z,34.39
2018-05-31T05:56:02.019Z,34.59
2018-05-31T05:58:30.436Z,34.06
2018-05-31T06:01:00.758Z,34.80
2018-05-31T06:03:29.216Z,36.76
2018-05-31T06:05:57.703Z,36.92
2018-05-31T06:08:26.130Z,36.21
2018-05-31T06:10:54.668Z,37.56
2018-05-31T06:13:23.114Z,36.38
2018-05-31T06:15:51.576Z,36.80
2018-05-31T06:18:19.999Z,37.21
2018-05-31T06:20:48.379Z,37.52
2018-05-31T06:23:16.820Z,36.92
2018-05-31T06:25:45.368Z,36.00
2018-05-31T06:28:13.797Z,37.10
2018-05-31T06:30:42.189Z,37.68
2018-05-31T06:33:10.581Z,37.49
2018-05-31T06:35:40.970Z,39.18
2018-05-31T06:38:09.376Z,39.33
2018-05-31T06:40:37.883Z,40.60
2018-05-31T06:43:06.261Z,40.23
2018-05-31T06:45:34.650Z,37.92
2018-05-31T06:48:03.090Z,37.68
2018-05-31T06:50:31.482Z,38.48
2018-05-31T06:52:59.924Z,38.58
2018-05-31T06:55:28.368Z,38.92
2018-05-31T06:57:56.899Z,41.06
2018-05-31T07:00:25.640Z,41.38
2018-05-31T07:02:54.101Z,40.53
2018-05-31T07:05:22.575Z,41.14
2018-05-31T07:07:51.903Z,38.40
2018-05-31T07:10:20.353Z,37.77
2018-05-31T07:12:48.910Z,37.63
2018-05-31T07:15:17.284Z,37.28
2018-05-31T07:17:45.838Z,38.89
2018-05-31T07:20:14.261Z,39.02
2018-05-31T07:22:43.585Z,37.87
2018-05-31T07:25:12.035Z,39.36
2018-05-31T07:27:40.514Z,39.39
2018-05-31T07:30:09.033Z,38.30
2018-05-31T07:32:37.430Z,37.83
2018-05-31T07:35:05.820Z,36.00
2018-05-31T07:37:35.206Z,36.97
2018-05-31T07:40:03.592Z,38.84
2018-05-31T07:42:32.364Z,38.90
2018-05-31T07:45:00.802Z,41.18
2018-05-31T07:47:30.225Z,40.91
2018-05-31T07:49:58.722Z,41.40
2018-05-31T07:52:27.198Z,41.79
2018-05-31T07:54:55.636Z,40.57
2018-05-31T07:57:25.079Z,39.52
2018-05-31T07:59:53.468Z,38.91
2018-05-31T08:02:21.871Z,41.15
2018-05-31T08:04:50.299Z,41.40
2018-05-31T08:07:19.231Z,39.37
2018-05-31T08:09:47.753Z,38.48
2018-05-31T08:12:16.190Z,37.51
2018-05-31T08:14:44.564Z,36.88
2018-05-31T08:17:13.114Z,36.74
2018-05-31T08:19:41.567Z,38.75
2018-05-31T08:22:09.941Z,39.61
2018-05-31T08:24:38.387Z,40.15
2018-05-31T08:27:07.752Z,41.63
2018-05-31T08:29:36.148Z,41.92
2018-05-31T08:32:04.634Z,42.12
2018-05-31T08:34:35.026Z,42.99
2018-05-31T08:37:04.358Z,43.84
2018-05-31T08:39:32.768Z,42.87
2018-05-31T08:42:02.022Z,44.15
2018-05-31T08:44:30.545Z,42.02
2018-05-31T08:46:59.335Z,43.91
2018-05-31T08:49:28.747Z,41.34
2018-05-31T08:51:57.272Z,40.15
2018-05-31T08:54:25.970Z,40.32
2018-05-31T08:56:54.695Z,39.93
2018-05-31T08:59:23.212Z,39.84
2018-05-31T09:01:51.619Z,42.62
2018-05-31T09:04:20.126Z,42.15
2018-05-31T09:06:48.624Z,42.22
2018-05-31T09:09:18.005Z,39.67
2018-05-31T09:11:47.399Z,42.13
2018-05-31T09:14:15.834Z,41.84
2018-05-31T09:16:44.234Z,41.43
2018-05-31T09:19:13.003Z,41.94
2018-05-31T09:21:41.790Z,43.74
2018-05-31T09:24:10.608Z,42.93
2018-05-31T09:26:39.080Z,43.14
2018-05-31T09:29:07.560Z,43.07
2018-05-31T09:31:36.277Z,41.68
2018-05-31T09:34:04.774Z,41.87
2018-05-31T09:36:34.568Z,40.77
2018-05-31T09:39:03.626Z,42.56
2018-05-31T09:41:32.189Z,41.91
2018-05-31T09:44:00.653Z,41.74
2018-05-31T09:46:29.278Z,42.50
2018-05-31T09:48:57.976Z,41.56
2018-05-31T09:51:26.443Z,42.85
2018-05-31T09:53:55.282Z,42.38
2018-05-31T09:56:24.396Z,40.01
2018-05-31T09:58:53.017Z,40.22
2018-05-31T10:01:21.679Z,41.49
2018-05-31T10:03:50.357Z,41.63
2018-05-31T10:06:24.117Z,42.05
2018-05-31T10:08:53.150Z,42.93
2018-05-31T10:11:21.648Z,43.00
2018-05-31T10:13:50.218Z,42.42
2018-05-31T10:16:18.822Z,43.69
2018-05-31T10:18:47.513Z,42.68
2018-05-31T10:21:16.166Z,43.46
2018-05-31T10:23:48.914Z,42.98
2018-05-31T10:26:17.856Z,43.16
2018-05-31T10:28:46.562Z,40.48
2018-05-31T10:31:17.623Z,40.47
2018-05-31T10:33:47.519Z,40.64
2018-05-31T10:36:17.111Z,42.50
2018-05-31T10:38:45.679Z,42.30
2018-05-31T10:41:14.181Z,39.73
2018-05-31T10:46:17.544Z,39.41
2018-05-31T10:48:46.090Z,37.58
2018-05-31T10:51:18.659Z,37.92
2018-05-31T10:53:47.166Z,38.01
2018-05-31T10:56:17.190Z,40.23
2018-05-31T10:58:46.092Z,40.03
2018-05-31T11:01:14.607Z,41.29
2018-05-31T11:03:43.092Z,41.00
2018-05-31T11:06:11.616Z,40.76
2018-05-31T11:08:40.089Z,42.01
2018-05-31T11:11:08.713Z,39.35
2018-05-31T11:13:37.279Z,41.03
2018-05-31T11:16:05.723Z,40.07
2018-05-31T11:18:34.256Z,38.87
2018-05-31T11:21:19.729Z,37.11
2018-05-31T11:23:48.858Z,37.24
2018-05-31T11:26:19.206Z,36.59
2018-05-31T11:28:48.006Z,37.65
2018-05-31T11:31:16.631Z,36.96
2018-05-31T11:33:45.061Z,36.79
2018-05-31T11:36:13.563Z,37.53
2018-05-31T11:38:42.004Z,37.27
2018-05-31T11:41:10.956Z,37.49
2018-05-31T11:43:41.099Z,35.85
2018-05-31T11:46:15.362Z,37.04
2018-05-31T11:48:44.860Z,36.23
2018-05-31T11:53:48.870Z,37.45
2018-05-31T11:56:17.910Z,35.91
2018-05-31T11:58:46.425Z,36.45
2018-05-31T12:01:15.031Z,36.59
2018-05-31T12:03:43.704Z,36.79
2018-05-31T12:06:12.199Z,36.59
2018-05-31T12:08:40.875Z,37.75
2018-05-31T12:11:09.437Z,36.91
2018-05-31T12:13:39.090Z,37.00
2018-05-31T12:16:09.521Z,35.61
2018-05-31T12:18:38.139Z,36.62
2018-05-31T12:21:07.496Z,36.65
2018-05-31T12:23:39.839Z,36.48
2018-05-31T12:26:09.505Z,35.53
2018-05-31T12:28:39.318Z,36.51
2018-05-31T12:31:08.417Z,37.11
2018-05-31T12:33:38.041Z,35.90
2018-05-31T12:36:06.825Z,36.94
2018-05-31T12:38:35.854Z,36.51
2018-05-31T12:41:04.576Z,35.06
2018-05-31T12:43:33.594Z,35.75
2018-05-31T12:46:03.194Z,35.13
2018-05-31T12:48:32.592Z,35.68
2018-05-31T12:51:02.298Z,35.72
2018-05-31T12:53:31.904Z,36.56
2018-05-31T12:56:00.786Z,35.02
2018-05-31T12:58:29.307Z,35.91
2018-05-31T13:00:58.002Z,35.65
2018-05-31T13:03:28.203Z,36.65
2018-05-31T13:05:57.749Z,35.94
2018-05-31T13:08:28.822Z,36.30
2018-05-31T13:10:57.529Z,33.75
2018-05-31T13:13:33.775Z,34.41
2018-05-31T13:16:02.569Z,33.81
2018-05-31T13:18:31.834Z,34.05
2018-05-31T13:21:02.003Z,33.57
2018-05-31T13:23:30.987Z,33.96
2018-05-31T13:26:00.250Z,33.35
2018-05-31T13:28:29.315Z,32.88
2018-05-31T13:30:58.581Z,32.61
2018-05-31T13:33:29.830Z,31.69
2018-05-31T13:35:58.803Z,32.04
2018-05-31T13:38:28.545Z,31.86
2018-05-31T13:40:57.588Z,31.44
2018-05-31T13:43:26.645Z,31.24
2018-05-31T13:45:55.192Z,29.95
2018-05-31T13:48:24.099Z,30.09
2018-05-31T13:50:52.721Z,30.17
2018-05-31T13:53:21.451Z,29.68
2018-05-31T13:55:50.898Z,29.09
2018-05-31T13:58:19.559Z,29.61
2018-05-31T14:00:48.155Z,29.30
2018-05-31T14:03:16.926Z,29.02
2018-05-31T14:05:45.389Z,28.71
2018-05-31T14:08:13.944Z,28.49
2018-05-31T14:10:42.440Z,28.47
2018-05-31T14:13:11.219Z,28.66
2018-05-31T14:15:39.991Z,28.73
2018-05-31T14:18:08.732Z,28.92
2018-05-31T14:20:37.352Z,29.17
2018-05-31T14:23:06.629Z,29.07
2018-05-31T14:25:35.115Z,29.81
2018-05-31T14:28:03.643Z,29.42
2018-05-31T14:30:32.030Z,29.16
2018-05-31T14:33:01.504Z,28.92
2018-05-31T14:35:30.055Z,29.62
2018-05-31T14:37:58.542Z,29.69
2018-05-31T14:40:27.230Z,29.76
2018-05-31T14:42:56.764Z,29.46
2018-05-31T14:45:25.274Z,29.92
2018-05-31T14:47:54.010Z,30.51
2018-05-31T14:50:22.578Z,30.63
2018-05-31T14:52:51.386Z,31.06
2018-05-31T14:55:20.259Z,31.29
2018-05-31T14:57:48.693Z,30.86
2018-05-31T15:00:17.095Z,31.39
2018-05-31T15:02:45.522Z,30.52
2018-05-31T15:05:14.825Z,30.85
2018-05-31T15:07:44.442Z,31.43
2018-05-31T15:10:13.835Z,30.79
2018-05-31T15:12:42.720Z,30.63
2018-05-31T15:15:11.551Z,29.93
2018-05-31T15:17:40.067Z,29.11
2018-05-31T15:20:08.781Z,29.04
2018-05-31T15:22:37.231Z,28.94
2018-05-31T15:25:05.668Z,28.81
2018-05-31T15:27:34.965Z,29.16
2018-05-31T15:30:03.723Z,29.04
2018-05-31T15:32:32.493Z,29.00
2018-05-31T15:35:01.067Z,29.36
2018-05-31T15:37:29.857Z,29.02
2018-05-31T15:39:58.785Z,29.13
2018-05-31T15:42:27.682Z,28.84
2018-05-31T15:44:56.915Z,28.97
2018-05-31T15:47:27.208Z,28.66
2018-05-31T15:49:55.892Z,28.65
2018-05-31T15:52:24.917Z,28.80
2018-05-31T15:54:54.379Z,29.41
2018-05-31T15:57:26.648Z,29.74
2018-05-31T15:59:55.297Z,29.56
2018-05-31T16:02:28.942Z,29.34
2018-05-31T16:05:07.066Z,29.09
2018-05-31T16:07:37.315Z,29.64
2018-05-31T16:10:06.785Z,29.29
2018-05-31T16:12:36.951Z,29.10
2018-05-31T16:15:05.486Z,29.28
2018-05-31T16:17:34.031Z,29.45
2018-05-31T16:20:02.653Z,29.50
2018-05-31T16:22:31.266Z,28.91
2018-05-31T16:24:59.945Z,28.81
2018-05-31T16:27:28.584Z,29.29
2018-05-31T16:29:57.019Z,29.54
2018-05-31T16:32:25.433Z,29.42
2018-05-31T16:34:54.009Z,29.22
2018-05-31T16:37:22.498Z,29.65
2018-05-31T16:39:51.814Z,29.23
2018-05-31T16:42:20.350Z,28.70
2018-05-31T16:44:49.820Z,29.40
2018-05-31T16:47:18.334Z,29.66
2018-05-31T16:49:46.761Z,29.48
2018-05-31T16:52:15.208Z,29.66
2018-05-31T16:54:43.659Z,29.78
2018-05-31T16:57:12.155Z,29.36
2018-05-31T16:59:41.111Z,29.69
2018-05-31T17:02:10.546Z,29.58
2018-05-31T17:06:03.013Z,29.40
2018-05-31T17:08:31.402Z,29.84
2018-05-31T17:10:59.813Z,30.22
2018-05-31T17:13:28.341Z,29.41
2018-05-31T17:15:56.791Z,30.06
2018-05-31T17:18:25.266Z,29.96
2018-05-31T17:20:53.833Z,30.23
2018-05-31T17:23:22.865Z,30.20
2018-05-31T17:25:55.271Z,29.29
2018-05-31T17:28:23.854Z,29.90
2018-05-31T17:30:52.270Z,29.32
2018-05-31T17:33:20.671Z,28.74
2018-05-31T17:35:49.114Z,29.07
2018-05-31T17:38:17.644Z,29.65
2018-05-31T17:40:46.159Z,29.56
2018-05-31T17:43:14.608Z,29.62
2018-05-31T17:45:43.124Z,29.15
2018-05-31T17:48:13.474Z,28.80
2018-05-31T17:50:41.847Z,29.33
2018-05-31T17:53:10.258Z,29.40
2018-05-31T17:55:38.654Z,28.96
2018-05-31T17:58:08.072Z,28.97
2018-05-31T18:00:36.442Z,28.91
2018-05-31T18:03:04.878Z,29.44
2018-05-31T18:05:33.279Z,29.05
2018-05-31T18:08:01.658Z,29.16
2018-05-31T18:10:30.061Z,28.99
2018-05-31T18:12:58.443Z,29.44
2018-05-31T18:15:27.090Z,29.14
2018-05-31T18:17:55.679Z,29.36
2018-05-31T18:20:24.171Z,28.71
2018-05-31T18:22:56.448Z,28.78
2018-05-31T18:25:24.925Z,28.39
2018-05-31T18:27:53.397Z,28.68
2018-05-31T18:30:21.826Z,29.29
2018-05-31T18:32:54.148Z,28.76
2018-05-31T18:35:22.631Z,29.10
2018-05-31T18:37:51.061Z,28.59
2018-05-31T18:40:19.514Z,28.49
2018-05-31T18:42:47.946Z,28.90
2018-05-31T18:45:16.469Z,28.32
2018-05-31T18:47:44.920Z,28.71
2018-05-31T18:50:13.350Z,28.49
2018-05-31T18:52:41.713Z,28.57
2018-05-31T18:55:10.139Z,28.13
2018-05-31T18:57:38.518Z,28.05
2018-05-31T19:00:06.966Z,28.27
2018-05-31T19:02:35.425Z,27.88
2018-05-31T19:05:03.948Z,27.54
2018-05-31T19:07:32.418Z,27.59
2018-05-31T19:10:00.850Z,27.35
2018-05-31T19:12:34.795Z,27.62
2018-05-31T19:15:03.165Z,27.48
2018-05-31T19:17:31.594Z,27.01
2018-05-31T19:20:00.113Z,26.96
2018-05-31T19:22:29.354Z,27.06
2018-05-31T19:25:03.262Z,27.09
2018-05-31T19:27:31.719Z,27.48
2018-05-31T19:30:05.918Z,27.51
2018-05-31T19:32:34.339Z,27.44
2018-05-31T19:35:03.689Z,27.32
2018-05-31T19:37:32.053Z,27.14
2018-05-31T19:40:00.423Z,27.09
2018-05-31T19:42:34.604Z,26.27
2018-05-31T19:45:03.061Z,25.92
2018-05-31T19:47:31.525Z,26.08
2018-05-31T19:50:00.015Z,26.33
2018-05-31T19:52:34.140Z,26.07
2018-05-31T19:55:02.509Z,25.67
2018-05-31T19:57:30.994Z,25.82
2018-05-31T20:00:04.902Z,25.81
2018-05-31T20:02:38.908Z,25.38
2018-05-31T20:05:07.371Z,25.63
2018-05-31T20:07:35.763Z,25.42
2018-05-31T20:10:04.207Z,25.75
2018-05-31T20:12:32.660Z,25.73
2018-05-31T20:15:01.038Z,26.10
2018-05-31T20:17:29.516Z,26.01
2018-05-31T20:19:57.867Z,26.03
2018-05-31T20:22:26.364Z,26.04
2018-05-31T20:24:54.754Z,25.80
2018-05-31T20:27:23.226Z,25.52
2018-05-31T20:29:51.595Z,25.40
2018-05-31T20:32:19.957Z,25.55
2018-05-31T20:34:48.400Z,25.30
2018-05-31T20:37:16.807Z,25.18
2018-05-31T20:39:45.364Z,25.47
2018-05-31T20:42:13.782Z,25.31
2018-05-31T20:44:42.275Z,25.22
2018-05-31T20:47:10.846Z,24.73
2018-05-31T20:49:39.200Z,25.20
2018-05-31T20:52:07.632Z,25.00
2018-05-31T20:54:35.990Z,25.01
2018-05-31T20:57:04.475Z,25.03
2018-05-31T20:59:33.856Z,25.13
2018-05-31T21:02:02.247Z,25.22
2018-05-31T21:04:30.651Z,24.75
2018-05-31T21:06:59.125Z,24.99
2018-05-31T21:09:27.546Z,24.97
2018-05-31T21:11:56.025Z,24.94
2018-05-31T21:14:24.361Z,25.20
2018-05-31T21:16:52.745Z,25.11
2018-05-31T21:19:21.161Z,25.15
2018-05-31T21:21:49.527Z,24.74
2018-05-31T21:24:17.893Z,24.93
2018-05-31T21:26:46.326Z,24.57
2018-05-31T21:29:14.734Z,25.03
2018-05-31T21:31:43.224Z,24.86
2018-05-31T21:34:11.690Z,25.00
2018-05-31T21:36:40.136Z,24.88
2018-05-31T21:39:08.506Z,24.91
2018-05-31T21:41:36.933Z,24.62
2018-05-31T21:44:05.289Z,24.61
2018-05-31T21:46:33.654Z,24.32
2018-05-31T21:49:03.112Z,24.52
2018-05-31T21:51:31.504Z,24.68
2018-05-31T21:53:59.873Z,24.92
2018-05-31T21:56:28.388Z,24.63
2018-05-31T21:58:56.802Z,24.53
2018-05-31T22:01:25.236Z,24.81
2018-05-31T22:03:53.671Z,24.53
2018-05-31T22:06:22.065Z,24.78
2018-05-31T22:08:50.430Z,24.40
2018-05-31T22:11:18.909Z,24.30
2018-05-31T22:13:47.251Z,24.23
2018-05-31T22:16:15.626Z,24.38
2018-05-31T22:18:44.031Z,24.04
2018-05-31T22:21:12.385Z,24.27
2018-05-31T22:23:40.840Z,24.68
2018-05-31T22:26:09.239Z,24.20
2018-05-31T22:28:37.666Z,24.07
2018-05-31T22:31:06.044Z,23.94
2018-05-31T22:33:34.523Z,24.23
2018-05-31T22:36:02.927Z,24.05
2018-05-31T22:38:31.340Z,23.95
2018-05-31T22:40:59.733Z,24.31
2018-05-31T22:43:29.219Z,24.16
2018-05-31T22:45:57.662Z,23.85
2018-05-31T22:48:26.092Z,24.22
2018-05-31T22:50:54.464Z,23.90
2018-05-31T22:53:22.841Z,23.84
2018-05-31T22:55:51.215Z,23.85
2018-05-31T22:58:19.660Z,24.36
2018-05-31T23:00:48.049Z,24.25
2018-05-31T23:03:16.399Z,24.10
2018-05-31T23:05:44.847Z,24.01
2018-05-31T23:08:13.188Z,24.13
2018-05-31T23:10:41.645Z,24.10
2018-05-31T23:13:10.027Z,24.07
2018-05-31T23:15:38.405Z,24.26
2018-05-31T23:18:06.756Z,23.84
2018-05-31T23:20:35.224Z,23.69
2018-05-31T23:23:03.636Z,24.46
2018-05-31T23:25:32.050Z,24.21
2018-05-31T23:28:00.621Z,23.67
2018-05-31T23:30:28.989Z,23.78
2018-05-31T23:32:57.366Z,24.52
2018-05-31T23:35:25.741Z,24.43
2018-05-31T23:37:54.099Z,23.99
2018-05-31T23:40:22.589Z,24.51
2018-05-31T23:42:50.972Z,24.42
2018-05-31T23:45:19.337Z,24.77
2018-05-31T23:47:47.787Z,24.76
2018-05-31T23:50:16.165Z,24.29
2018-05-31T23:52:44.611Z,24.17
2018-05-31T23:55:12.956Z,24.23
2018-05-31T23:57:41.577Z,24.13
